Terminal Aerodrome Forecast
Issued by NWS

Home | Current Version | Previous Version | Text Only | Print | Product List | Glossary Off
Versions: 1 2 3 4 5 6 7 8 9 10 11 12 13 14 15 16 17 18 19 20 21 22 23 24 25 26 27 28 29 30 31 32 33 34

580
FTUS43 KLOT 210523
TAFORD
TAF
KORD 210523Z 2106/2212 07004KT P6SM FEW040 BKN250
     FM210800 VRB04KT P6SM VCTS SCT040CB BKN150
     FM211100 VRB04KT P6SM FEW040 BKN090
     FM211500 12006KT P6SM BKN100 PROB30 2122/2202 5SM TSRA BKN050CB
     FM220500 18007KT P6SM BKN100 PROB30 2208/2210 3SM TSRA
      BKN035CB=

USA.gov is the U.S. government's official web portal to all federal, state and local government web resources and services.